Time;durP1;ratioP1;P1;durP2;ratioP2;P2;SDS_P1;SDS_P2;PMS_P1;PMS_P2;Temp;Humidity;BMP_temperature;BMP_pressure;BME280_temperature;BME280_humidity;BME280_pressure;Samples;Min_cycle;Max_cycle;Signal;HPM_P1;HPM_P2
2022/09/14 00:00:11;;;;;;;11.45;10.25;;;;;23.30;99710.00;;;;2086259;28;20220;-53
2022/09/14 00:01:19;;;;;;;12.80;10.20;;;;;23.30;99721.00;;;;2086281;28;20213;-54
2022/09/14 00:02:19;;;;;;;11.02;9.75;;;;;23.30;99716.00;;;;2095340;28;20576;-53
2022/09/14 00:03:19;;;;;;;11.30;9.17;;;;;23.30;99724.00;;;;2095267;28;20224;-54
2022/09/14 00:04:20;;;;;;;10.17;8.97;;;;;23.30;99717.00;;;;2094914;28;20223;-54
2022/09/14 00:05:21;;;;;;;10.07;8.98;;;;;23.30;99719.00;;;;2093803;28;20316;-54
2022/09/14 00:06:21;;;;;;;9.60;8.70;;;;;23.30;99715.00;;;;2095293;28;20203;-53
2022/09/14 00:07:21;;;;;;;9.73;8.73;;;;;23.30;99714.00;;;;2093989;28;20274;-52
2022/09/14 00:08:22;;;;;;;9.70;8.70;;;;;23.30;99717.00;;;;2093648;28;25482;-53
2022/09/14 00:09:23;;;;;;;9.17;8.23;;;;;23.30;99722.00;;;;2095419;28;20251;-54
2022/09/14 00:10:23;;;;;;;9.52;8.10;;;;;23.30;99712.00;;;;2095284;28;20224;-53
2022/09/14 00:11:25;;;;;;;9.20;8.17;;;;;23.30;99719.00;;;;2095399;28;20236;-53
2022/09/14 00:12:25;;;;;;;8.95;8.05;;;;;23.30;99705.00;;;;2094181;28;20211;-54
2022/09/14 00:13:25;;;;;;;9.00;8.10;;;;;23.30;99715.00;;;;2087124;28;20219;-53
2022/09/14 00:14:26;;;;;;;8.37;7.50;;;;;23.30;99707.00;;;;2086258;28;20212;-54
2022/09/14 00:15:26;;;;;;;8.50;7.70;;;;;23.30;99710.00;;;;2086776;28;20209;-53
2022/09/14 00:16:28;;;;;;;9.03;8.13;;;;;23.30;99704.00;;;;2086846;28;20240;-53
2022/09/14 00:17:29;;;;;;;8.57;7.50;;;;;23.30;99704.00;;;;2086146;28;20270;-54
2022/09/14 00:18:29;;;;;;;7.93;7.13;;;;;23.30;99704.00;;;;2086764;28;20217;-54
2022/09/14 00:19:30;;;;;;;9.07;6.80;;;;;23.30;99719.00;;;;2086699;28;20290;-54
2022/09/14 00:20:30;;;;;;;7.93;7.13;;;;;23.30;99697.00;;;;2086874;28;20263;-53
2022/09/14 00:21:37;;;;;;;7.63;6.93;;;;;23.30;99696.00;;;;2092073;28;20212;-53
2022/09/14 00:22:37;;;;;;;7.90;6.85;;;;;23.30;99697.00;;;;2094927;28;20208;-58
2022/09/14 00:23:38;;;;;;;7.73;7.03;;;;;23.30;99691.00;;;;2094550;28;20660;-54
2022/09/14 00:24:39;;;;;;;7.88;6.88;;;;;23.30;99701.00;;;;2094266;28;20223;-53
2022/09/14 00:25:39;;;;;;;7.30;6.37;;;;;23.30;99692.00;;;;2095121;28;20556;-54
2022/09/14 00:26:39;;;;;;;7.33;6.63;;;;;23.30;99690.00;;;;2095107;28;20218;-55
2022/09/14 00:27:40;;;;;;;7.57;6.77;;;;;23.30;99687.00;;;;2094234;28;20212;-54
2022/09/14 00:28:42;;;;;;;7.47;6.60;;;;;23.30;99684.00;;;;2094939;28;20293;-54
2022/09/14 00:29:43;;;;;;;8.18;6.80;;;;;23.30;99687.00;;;;2094470;28;20317;-53
2022/09/14 00:30:43;;;;;;;7.53;6.60;;;;;23.30;99689.00;;;;2094673;28;20561;-54
2022/09/14 00:31:44;;;;;;;7.20;6.20;;;;;23.30;99683.00;;;;2095143;28;20218;-54
2022/09/14 00:32:44;;;;;;;7.27;6.53;;;;;23.30;99690.00;;;;2093992;28;20208;-54
2022/09/14 00:33:48;;;;;;;6.30;5.70;;;;;23.30;99679.00;;;;2086733;28;20244;-53
2022/09/14 00:34:48;;;;;;;7.40;6.30;;;;;23.30;99681.00;;;;2090344;28;20216;-54
2022/09/14 00:35:48;;;;;;;8.23;6.57;;;;;23.30;99680.00;;;;2095302;28;20207;-54
2022/09/14 00:36:49;;;;;;;8.63;6.67;;;;;23.30;99676.00;;;;2095369;28;20219;-54
2022/09/14 00:37:50;;;;;;;6.10;5.50;;;;;23.30;99671.00;;;;2093583;28;20247;-54
2022/09/14 00:38:50;;;;;;;6.23;5.13;;;;;23.30;99674.00;;;;2094275;28;20588;-54
2022/09/14 00:39:51;;;;;;;6.37;5.70;;;;;23.30;99676.00;;;;2094442;28;20224;-53
2022/09/14 00:40:58;;;;;;;5.97;5.37;;;;;23.30;99677.00;;;;2094505;28;20223;-53
2022/09/14 00:41:58;;;;;;;8.30;5.80;;;;;23.30;99683.00;;;;2095311;28;20228;-53
2022/09/14 00:42:58;;;;;;;6.67;5.47;;;;;23.30;99663.00;;;;2094925;28;20204;-54
2022/09/14 00:44:14;;;;;;;6.33;5.27;;;;;23.30;99675.00;;;;2093323;28;20208;-54
2022/09/14 00:45:19;;;;;;;6.40;4.85;;;;;23.30;99668.00;;;;2094033;28;20211;-54
2022/09/14 00:46:20;;;;;;;6.07;5.03;;;;;23.30;99670.00;;;;2094329;28;20702;-53
2022/09/14 00:47:20;;;;;;;5.80;5.03;;;;;23.20;99665.00;;;;2085425;28;20220;-53
2022/09/14 00:48:22;;;;;;;5.93;4.80;;;;;23.30;99668.00;;;;2092928;28;20216;-53
2022/09/14 00:49:27;;;;;;;5.80;5.30;;;;;23.20;99653.00;;;;2085913;28;20228;-54
2022/09/14 00:50:28;;;;;;;6.00;5.13;;;;;23.20;99661.00;;;;2086918;28;20212;-53
2022/09/14 00:51:29;;;;;;;5.93;5.10;;;;;23.20;99660.00;;;;2094455;28;20205;-54
2022/09/14 00:52:31;;;;;;;5.95;4.70;;;;;23.20;99645.00;;;;2086170;28;20239;-54
2022/09/14 00:53:32;;;;;;;6.70;4.95;;;;;23.30;99652.00;;;;2086248;28;20212;-53
2022/09/14 00:54:32;;;;;;;4.97;4.47;;;;;23.20;99654.00;;;;2094420;28;20212;-52
2022/09/14 00:55:32;;;;;;;5.40;4.80;;;;;23.20;99647.00;;;;2095000;28;20342;-53
2022/09/14 00:56:33;;;;;;;5.63;5.07;;;;;23.30;99624.00;;;;2094916;28;20215;-54
2022/09/14 00:57:36;;;;;;;4.97;4.30;;;;;23.30;99645.00;;;;2093105;28;20669;-54
2022/09/14 00:58:37;;;;;;;5.72;4.25;;;;;23.30;99642.00;;;;2086064;28;20231;-53
2022/09/14 00:59:38;;;;;;;4.90;4.40;;;;;23.30;99639.00;;;;2085911;28;20243;-53
2022/09/14 01:00:39;;;;;;;4.82;4.18;;;;;23.30;99647.00;;;;2077932;28;20233;-53
2022/09/14 01:01:39;;;;;;;6.50;4.67;;;;;23.30;99644.00;;;;2086209;28;20227;-53
2022/09/14 01:02:39;;;;;;;4.37;3.70;;;;;23.30;99641.00;;;;2087516;28;20359;-54
2022/09/14 01:03:40;;;;;;;5.03;3.77;;;;;23.30;99641.00;;;;2086394;28;20501;-54
2022/09/14 01:04:40;;;;;;;4.63;4.10;;;;;23.30;99632.00;;;;2086737;28;20231;-54
2022/09/14 01:05:49;;;;;;;4.30;3.83;;;;;23.30;99635.00;;;;2081882;28;20234;-53
2022/09/14 01:06:53;;;;;;;4.40;3.50;;;;;23.30;99633.00;;;;2086530;28;20752;-53
2022/09/14 01:08:22;;;;;;;4.60;4.10;;;;;23.20;99648.00;;;;2085763;28;20217;-54
2022/09/14 01:09:34;;;;;;;4.93;3.78;;;;;23.20;99638.00;;;;2092283;28;20669;-54
2022/09/14 01:11:06;;;;;;;4.45;4.05;;;;;23.20;99634.00;;;;2094435;28;20224;-54
2022/09/14 01:12:28;;;;;;;4.35;3.60;;;;;23.20;99636.00;;;;2094603;28;20346;-54
2022/09/14 01:13:35;;;;;;;3.67;3.35;;;;;23.20;99627.00;;;;2093656;28;20223;-54
2022/09/14 01:15:08;;;;;;;5.28;3.58;;;;;23.30;99636.00;;;;2094846;28;20224;-54
2022/09/14 01:16:29;;;;;;;4.70;3.30;;;;;23.30;99624.00;;;;2087165;28;20223;-54
2022/09/14 01:17:48;;;;;;;5.28;3.72;;;;;23.30;99633.00;;;;2093277;28;20255;-54
2022/09/14 01:18:59;;;;;;;4.07;3.67;;;;;23.20;99638.00;;;;2088923;28;20217;-53
2022/09/14 01:20:14;;;;;;;4.00;3.60;;;;;23.30;99634.00;;;;2087382;28;20705;-53
2022/09/14 01:21:19;;;;;;;4.30;3.50;;;;;23.30;99630.00;;;;2089063;28;20216;-59
2022/09/14 01:22:33;;;;;;;4.38;3.13;;;;;23.20;99636.00;;;;2087262;28;20292;-54
2022/09/14 01:23:58;;;;;;;4.28;3.10;;;;;23.20;99627.00;;;;2083205;28;20236;-53
2022/09/14 01:25:22;;;;;;;4.63;3.22;;;;;23.20;99632.00;;;;2096125;28;20212;-54
2022/09/14 01:26:35;;;;;;;3.72;3.00;;;;;23.30;99633.00;;;;2087248;28;20596;-54
2022/09/14 01:27:40;;;;;;;3.42;2.97;;;;;23.20;99602.00;;;;2090816;28;20299;-54
2022/09/14 01:29:13;;;;;;;4.63;3.00;;;;;23.20;99626.00;;;;2095630;28;20630;-53
2022/09/14 01:30:17;;;;;;;3.83;3.30;;;;;23.20;99632.00;;;;2095982;28;20311;-53
2022/09/14 01:31:39;;;;;;;3.70;3.30;;;;;23.20;99627.00;;;;2081829;28;20270;-56
2022/09/14 01:32:48;;;;;;;4.05;3.17;;;;;23.20;99625.00;;;;2081009;28;20204;-54
2022/09/14 01:33:52;;;;;;;3.63;3.03;;;;;23.20;99622.00;;;;2079180;28;20216;-53
2022/09/14 01:35:15;;;;;;;3.42;2.90;;;;;23.20;99613.00;;;;2069562;28;20244;-53
2022/09/14 01:36:15;;;;;;;3.55;2.33;;;;;23.20;99617.00;;;;2085696;28;20224;-54
2022/09/14 01:37:26;;;;;;;3.17;2.40;;;;;23.20;99623.00;;;;2086523;28;20634;-54
2022/09/14 01:38:33;;;;;;;3.30;2.60;;;;;23.20;99619.00;;;;2079857;28;20214;-54
2022/09/14 01:39:33;;;;;;;5.55;3.20;;;;;23.20;99622.00;;;;2081365;28;20642;-54
2022/09/14 01:40:38;;;;;;;3.60;2.87;;;;;23.20;99613.00;;;;2087136;28;20209;-53
2022/09/14 01:41:39;;;;;;;4.78;2.83;;;;;23.20;99623.00;;;;2079928;28;20300;-53
2022/09/14 01:42:40;;;;;;;3.63;2.30;;;;;23.20;99603.00;;;;2087560;28;20209;-54
2022/09/14 01:43:45;;;;;;;3.60;2.47;;;;;23.20;99613.00;;;;2087698;28;20223;-54
2022/09/14 01:44:47;;;;;;;4.20;2.50;;;;;23.30;99606.00;;;;2087412;28;20220;-54
2022/09/14 01:45:50;;;;;;;3.80;2.75;;;;;23.20;99623.00;;;;2079368;28;20213;-54
2022/09/14 01:46:53;;;;;;;2.85;2.55;;;;;23.20;99622.00;;;;2077802;28;20206;-56
2022/09/14 01:47:55;;;;;;;3.15;2.30;;;;;23.20;99591.00;;;;2087072;28;20209;-53
2022/09/14 01:49:23;;;;;;;4.25;2.42;;;;;23.20;99617.00;;;;2079150;28;20735;-53
2022/09/14 01:50:30;;;;;;;3.55;2.38;;;;;23.20;99619.00;;;;2086045;28;20212;-54
2022/09/14 01:51:35;;;;;;;5.47;2.67;;;;;23.20;99619.00;;;;2087893;28;20555;-54
2022/09/14 01:52:52;;;;;;;3.95;2.40;;;;;23.20;99619.00;;;;2088322;28;20244;-54
2022/09/14 01:53:55;;;;;;;3.13;2.80;;;;;23.20;99611.00;;;;2081038;28;20213;-53
2022/09/14 01:55:26;;;;;;;3.78;2.00;;;;;23.20;99605.00;;;;2079534;28;20806;-54
2022/09/14 01:56:32;;;;;;;3.72;2.00;;;;;23.20;99613.00;;;;2074121;28;20266;-55
2022/09/14 01:57:35;;;;;;;2.50;2.20;;;;;23.20;99617.00;;;;2070778;28;20218;-54
2022/09/14 01:58:39;;;;;;;2.40;2.15;;;;;23.20;99603.00;;;;2079717;28;20209;-53
2022/09/14 01:59:42;;;;;;;3.22;1.95;;;;;22.90;99602.00;;;;2087248;28;20248;-54
2022/09/14 02:00:44;;;;;;;2.30;2.10;;;;;23.20;99603.00;;;;2079431;28;20248;-55
2022/09/14 02:02:22;;;;;;;2.92;2.15;;;;;23.20;99606.00;;;;2078877;28;20209;-53
2022/09/14 02:03:26;;;;;;;3.10;2.40;;;;;23.20;99609.00;;;;2083912;28;20217;-54
2022/09/14 02:05:05;;;;;;;2.90;2.20;;;;;23.20;99606.00;;;;2079085;28;20314;-54
2022/09/14 02:06:13;;;;;;;4.75;2.00;;;;;23.20;99601.00;;;;2093765;28;20614;-53
2022/09/14 02:07:13;;;;;;;2.47;1.90;;;;;23.20;99606.00;;;;2095258;28;20320;-53
2022/09/14 02:08:13;;;;;;;2.57;2.10;;;;;23.10;99606.00;;;;2086717;28;20228;-54
2022/09/14 02:09:17;;;;;;;3.30;1.60;;;;;23.20;99615.00;;;;2087293;28;20704;-55
2022/09/14 02:10:17;;;;;;;2.45;1.95;;;;;23.20;99610.00;;;;2094819;28;20231;-55
2022/09/14 02:11:17;;;;;;;4.63;2.30;;;;;23.20;99610.00;;;;2095492;28;20447;-53
2022/09/14 02:12:18;;;;;;;2.90;2.13;;;;;23.20;99616.00;;;;2087090;28;20213;-55
2022/09/14 02:13:18;;;;;;;2.73;2.20;;;;;23.20;99611.00;;;;2078816;28;20225;-53
2022/09/14 02:14:18;;;;;;;1.90;1.70;;;;;23.20;99618.00;;;;2077716;28;20272;-55
2022/09/14 02:15:19;;;;;;;2.87;1.83;;;;;23.20;99614.00;;;;2095438;28;20298;-54
2022/09/14 02:16:20;;;;;;;4.87;2.03;;;;;23.20;99610.00;;;;2078550;28;20210;-54
2022/09/14 02:17:21;;;;;;;2.83;1.80;;;;;23.20;99609.00;;;;2078168;28;20260;-55
2022/09/14 02:18:21;;;;;;;2.50;1.83;;;;;23.10;99614.00;;;;2091860;28;20591;-55
2022/09/14 02:19:21;;;;;;;3.20;1.80;;;;;23.20;99614.00;;;;2079140;28;20295;-54
2022/09/14 02:20:46;;;;;;;3.40;1.90;;;;;23.20;99614.00;;;;2086173;28;20223;-55
2022/09/14 02:21:46;;;;;;;1.83;1.55;;;;;23.10;99607.00;;;;2078946;28;20215;-54
2022/09/14 02:22:46;;;;;;;2.40;1.73;;;;;23.20;99624.00;;;;2087159;28;20212;-55
2022/09/14 02:23:48;;;;;;;4.00;1.70;;;;;23.20;99621.00;;;;2095263;28;20294;-55
2022/09/14 02:24:48;;;;;;;2.17;1.60;;;;;23.10;99613.00;;;;2094752;28;20295;-55
2022/09/14 02:25:48;;;;;;;3.33;1.50;;;;;23.10;99619.00;;;;2094648;28;20364;-55
2022/09/14 02:26:50;;;;;;;2.03;1.77;;;;;23.10;99612.00;;;;2095115;28;20716;-53
2022/09/14 02:27:51;;;;;;;2.03;1.30;;;;;23.10;99609.00;;;;2077843;28;20802;-55
2022/09/14 02:28:55;;;;;;;2.90;1.55;;;;;23.20;99618.00;;;;2087222;28;20221;-55
2022/09/14 02:29:55;;;;;;;5.70;1.30;;;;;23.20;99617.00;;;;2095303;28;20204;-52
2022/09/14 02:31:07;;;;;;;2.77;1.37;;;;;22.70;99607.00;;;;2088312;28;20223;-52
2022/09/14 02:32:32;;;;;;;1.50;1.10;;;;;22.60;99592.00;;;;2092632;28;20231;-53
2022/09/14 02:34:11;;;;;;;3.28;1.00;;;;;22.80;99600.00;;;;2086840;28;20220;-54
2022/09/14 02:35:36;;;;;;;2.50;1.13;;;;;22.90;99607.00;;;;2087275;28;20223;-52
2022/09/14 02:36:56;;;;;;;3.83;1.17;;;;;23.00;99609.00;;;;2094632;28;20244;-53
2022/09/14 02:37:59;;;;;;;4.70;1.15;;;;;23.00;99600.00;;;;2094253;28;20586;-53
2022/09/14 02:39:25;;;;;;;4.00;1.33;;;;;23.00;99594.00;;;;2095693;28;20254;-53
2022/09/14 02:40:50;;;;;;;3.55;1.77;;;;;23.00;99609.00;;;;2079458;28;20217;-52
2022/09/14 02:42:00;;;;;;;4.15;1.27;;;;;23.00;99605.00;;;;2095458;28;20236;-53
2022/09/14 02:43:11;;;;;;;1.75;1.17;;;;;23.00;99603.00;;;;2086760;28;21094;-53
2022/09/14 02:44:23;;;;;;;3.10;1.30;;;;;23.00;99596.00;;;;2090424;28;20755;-53
2022/09/14 02:45:52;;;;;;;3.70;1.52;;;;;23.10;99595.00;;;;2094943;28;20295;-53
2022/09/14 02:47:22;;;;;;;2.42;1.05;;;;;23.10;99594.00;;;;2094916;28;20687;-54
2022/09/14 02:48:26;;;;;;;2.63;1.30;;;;;23.10;99603.00;;;;2094777;28;20212;-55
2022/09/14 02:49:43;;;;;;;1.83;1.20;;;;;23.20;99599.00;;;;2095029;28;20231;-54
2022/09/14 02:50:46;;;;;;;1.52;1.10;;;;;23.10;99590.00;;;;2080268;28;20708;-54
2022/09/14 02:52:05;;;;;;;3.05;1.40;;;;;23.10;99593.00;;;;2080054;28;20539;-55
2022/09/14 02:53:16;;;;;;;2.30;1.30;;;;;23.10;99622.00;;;;2088426;28;20209;-55
2022/09/14 02:54:19;;;;;;;3.42;1.15;;;;;23.10;99596.00;;;;2081276;28;20245;-54
2022/09/14 02:55:20;;;;;;;2.63;1.17;;;;;23.10;99590.00;;;;2079916;28;20210;-53
2022/09/14 02:56:20;;;;;;;2.22;1.10;;;;;23.10;99594.00;;;;2070325;28;20214;-55
2022/09/14 02:57:21;;;;;;;2.03;1.17;;;;;23.10;99592.00;;;;2083744;28;20303;-54
2022/09/14 02:58:21;;;;;;;3.47;1.30;;;;;23.10;99615.00;;;;2094114;28;20224;-54
2022/09/14 02:59:21;;;;;;;2.40;1.23;;;;;23.10;99594.00;;;;2092802;28;20246;-55
2022/09/14 03:00:22;;;;;;;2.30;1.23;;;;;23.10;99596.00;;;;2086882;28;21029;-54
2022/09/14 03:01:22;;;;;;;2.47;1.00;;;;;23.10;99593.00;;;;2087014;28;20258;-55
2022/09/14 03:02:23;;;;;;;2.60;1.10;;;;;23.10;99594.00;;;;2077619;28;20217;-54
2022/09/14 03:03:23;;;;;;;3.50;0.80;;;;;23.10;99593.00;;;;2078626;28;20213;-54
2022/09/14 03:04:23;;;;;;;3.87;1.30;;;;;23.10;99585.00;;;;2086868;28;20685;-54
2022/09/14 03:05:24;;;;;;;1.90;1.10;;;;;23.10;99590.00;;;;2087386;28;20586;-54
2022/09/14 03:06:24;;;;;;;2.40;1.17;;;;;23.10;99590.00;;;;2087353;28;20566;-53
2022/09/14 03:07:24;;;;;;;2.80;1.30;;;;;23.10;99592.00;;;;2086668;28;20236;-55
2022/09/14 03:08:25;;;;;;;3.57;1.60;;;;;23.10;99586.00;;;;2084898;28;20215;-55
2022/09/14 03:09:25;;;;;;;3.40;1.87;;;;;23.10;99629.00;;;;2087419;28;20217;-55
2022/09/14 03:10:26;;;;;;;2.70;2.03;;;;;23.10;99557.00;;;;2089474;28;20680;-55
2022/09/14 03:11:27;;;;;;;3.17;2.58;;;;;23.10;99582.00;;;;2091418;28;20697;-54
2022/09/14 03:12:27;;;;;;;5.33;4.30;;;;;23.10;99581.00;;;;2086447;28;20212;-54
2022/09/14 03:13:27;;;;;;;9.30;8.40;;;;;23.10;99580.00;;;;2087507;28;20209;-54
2022/09/14 03:14:28;;;;;;;16.07;12.80;;;;;23.10;99590.00;;;;2087153;28;20270;-53
2022/09/14 03:15:28;;;;;;;13.50;11.33;;;;;23.10;99593.00;;;;2087468;28;20232;-53
2022/09/14 03:16:28;;;;;;;15.83;14.23;;;;;23.10;99580.00;;;;2086743;28;20212;-54
2022/09/14 03:17:29;;;;;;;19.77;17.80;;;;;23.10;99581.00;;;;2086688;28;20209;-53
2022/09/14 03:18:29;;;;;;;29.23;25.63;;;;;23.10;99585.00;;;;2087045;28;20297;-53
2022/09/14 03:19:29;;;;;;;28.47;25.47;;;;;23.10;99572.00;;;;2087438;28;20216;-54
2022/09/14 03:20:31;;;;;;;29.40;26.40;;;;;23.10;99573.00;;;;2087379;28;20213;-53
2022/09/14 03:21:31;;;;;;;29.58;26.58;;;;;23.10;99576.00;;;;2086555;28;20728;-53
2022/09/14 03:22:32;;;;;;;36.17;32.27;;;;;23.10;99566.00;;;;2086326;28;20219;-55
2022/09/14 03:23:36;;;;;;;36.10;32.40;;;;;23.10;99567.00;;;;2087225;28;20217;-55
2022/09/14 03:24:37;;;;;;;35.95;32.28;;;;;23.10;99570.00;;;;2085906;28;20588;-54
2022/09/14 03:25:40;;;;;;;39.33;35.13;;;;;23.10;99557.00;;;;2086625;28;20209;-54
2022/09/14 03:26:40;;;;;;;39.60;34.13;;;;;23.10;99562.00;;;;2087048;28;20478;-54
2022/09/14 03:27:41;;;;;;;39.00;35.00;;;;;23.10;99554.00;;;;2086546;28;20247;-54
2022/09/14 03:28:41;;;;;;;41.17;36.73;;;;;23.10;99556.00;;;;2090972;28;20222;-55
2022/09/14 03:29:41;;;;;;;42.60;38.00;;;;;23.10;99561.00;;;;2091732;28;20597;-54
2022/09/14 03:30:43;;;;;;;43.22;38.70;;;;;23.10;99549.00;;;;2095515;28;20608;-55
2022/09/14 03:31:43;;;;;;;40.50;36.20;;;;;23.10;99554.00;;;;2094941;28;20254;-54
2022/09/14 03:32:43;;;;;;;42.90;38.40;;;;;23.10;99553.00;;;;2094764;28;20212;-53
2022/09/14 03:33:44;;;;;;;42.60;38.07;;;;;23.10;99561.00;;;;2094661;28;20241;-53
2022/09/14 03:34:44;;;;;;;43.67;38.97;;;;;23.10;99560.00;;;;2094427;28;20250;-54
2022/09/14 03:35:45;;;;;;;43.80;39.20;;;;;23.10;99621.00;;;;2094476;28;20226;-54
2022/09/14 03:36:45;;;;;;;44.10;39.37;;;;;23.10;99555.00;;;;2094175;28;20696;-55
2022/09/14 03:37:45;;;;;;;41.60;37.27;;;;;23.10;99550.00;;;;2093654;28;20213;-54
2022/09/14 03:38:50;;;;;;;41.77;37.40;;;;;23.10;99547.00;;;;2094690;28;20208;-53
2022/09/14 03:39:51;;;;;;;44.10;39.40;;;;;23.10;99553.00;;;;2094645;28;20258;-55
2022/09/14 03:40:52;;;;;;;40.97;36.63;;;;;23.10;99552.00;;;;2094137;28;20345;-54
2022/09/14 03:41:52;;;;;;;40.67;36.33;;;;;23.10;99545.00;;;;2093369;28;20223;-55
2022/09/14 03:42:52;;;;;;;41.50;37.10;;;;;23.10;99547.00;;;;2087163;28;20239;-54
2022/09/14 03:43:53;;;;;;;38.60;34.47;;;;;23.10;99449.00;;;;2087166;28;20213;-53
2022/09/14 03:44:53;;;;;;;41.73;34.97;;;;;23.10;99543.00;;;;2086252;28;20217;-54
2022/09/14 03:45:53;;;;;;;39.60;35.20;;;;;23.10;99537.00;;;;2087025;28;20587;-54
2022/09/14 03:46:53;;;;;;;38.70;34.50;;;;;23.00;99539.00;;;;2086799;28;20570;-55
2022/09/14 03:47:54;;;;;;;36.00;32.13;;;;;23.10;99538.00;;;;2086551;28;20685;-54
2022/09/14 03:48:54;;;;;;;37.53;33.27;;;;;23.00;99538.00;;;;2087009;28;20693;-54
2022/09/14 03:49:55;;;;;;;35.70;32.00;;;;;23.10;99537.00;;;;2086975;28;20701;-54
2022/09/14 03:50:55;;;;;;;37.03;32.20;;;;;23.10;99541.00;;;;2086930;28;20213;-53
2022/09/14 03:51:56;;;;;;;37.20;32.67;;;;;23.00;99533.00;;;;2077656;28;20215;-54
2022/09/14 03:52:56;;;;;;;33.10;29.60;;;;;23.00;99530.00;;;;2077754;28;20213;-54
2022/09/14 03:53:57;;;;;;;31.43;28.23;;;;;23.00;99536.00;;;;2087008;28;20697;-54
2022/09/14 03:54:57;;;;;;;32.37;28.97;;;;;23.10;99534.00;;;;2085358;28;20452;-55
2022/09/14 03:55:57;;;;;;;31.23;27.87;;;;;23.10;99533.00;;;;2086934;28;20209;-54
2022/09/14 03:56:58;;;;;;;31.57;28.17;;;;;23.10;99532.00;;;;2086781;28;20224;-54
2022/09/14 03:57:58;;;;;;;31.37;27.97;;;;;23.10;99537.00;;;;2086409;28;20208;-54
2022/09/14 03:58:58;;;;;;;30.33;27.13;;;;;23.10;99533.00;;;;2087018;28;20215;-54
2022/09/14 03:59:59;;;;;;;30.40;27.10;;;;;23.00;99548.00;;;;2090025;28;20252;-55
2022/09/14 04:01:04;;;;;;;29.50;26.40;;;;;23.10;99541.00;;;;2086261;28;20255;-54
2022/09/14 04:02:05;;;;;;;32.22;28.83;;;;;23.10;99530.00;;;;2091888;28;20212;-54
2022/09/14 04:03:05;;;;;;;33.87;29.80;;;;;23.10;99534.00;;;;2091600;28;20223;-54
2022/09/14 04:04:05;;;;;;;34.37;30.50;;;;;23.00;99540.00;;;;2085433;28;20224;-55
2022/09/14 04:05:06;;;;;;;38.03;33.73;;;;;23.10;99532.00;;;;2089880;28;20295;-54
2022/09/14 04:06:07;;;;;;;40.27;33.07;;;;;23.00;99531.00;;;;2093502;28;20228;-54
2022/09/14 04:07:07;;;;;;;43.27;37.97;;;;;23.00;99536.00;;;;2094674;28;20209;-54
2022/09/14 04:08:07;;;;;;;49.03;41.70;;;;;23.00;99536.00;;;;2093982;28;20990;-54
2022/09/14 04:09:08;;;;;;;44.67;39.60;;;;;23.00;99527.00;;;;2094672;28;20257;-55
2022/09/14 04:10:08;;;;;;;55.60;45.80;;;;;23.10;99530.00;;;;2093871;28;20634;-54
2022/09/14 04:11:13;;;;;;;56.10;46.43;;;;;23.10;99536.00;;;;2094171;28;20575;-53
2022/09/14 04:12:14;;;;;;;58.05;48.08;;;;;23.10;99528.00;;;;2093612;28;20231;-54
2022/09/14 04:13:14;;;;;;;64.23;52.20;;;;;23.00;99529.00;;;;2093905;28;20650;-55
2022/09/14 04:14:15;;;;;;;60.77;50.93;;;;;23.00;99531.00;;;;2094338;28;20296;-53
2022/09/14 04:15:15;;;;;;;65.50;52.50;;;;;23.10;99551.00;;;;2094455;28;20629;-54
2022/09/14 04:16:16;;;;;;;65.30;52.10;;;;;23.10;99537.00;;;;2094672;28;20703;-55
2022/09/14 04:17:16;;;;;;;66.60;53.93;;;;;23.00;99532.00;;;;2094035;28;20224;-55
2022/09/14 04:18:17;;;;;;;72.33;56.33;;;;;23.00;99535.00;;;;2094382;28;20212;-53
2022/09/14 04:19:17;;;;;;;73.17;56.90;;;;;23.00;99532.00;;;;2092165;28;20232;-53
2022/09/14 04:20:17;;;;;;;68.20;55.03;;;;;23.00;99535.00;;;;2086371;28;20306;-54
2022/09/14 04:21:19;;;;;;;67.27;55.30;;;;;23.00;99506.00;;;;2086343;28;20212;-54
2022/09/14 04:22:20;;;;;;;66.40;53.58;;;;;23.00;99528.00;;;;2085686;28;20584;-55
2022/09/14 04:23:20;;;;;;;64.30;52.07;;;;;23.00;99532.00;;;;2085562;28;20224;-54
2022/09/14 04:24:21;;;;;;;61.50;50.87;;;;;23.10;99525.00;;;;2085871;28;20227;-54
2022/09/14 04:25:22;;;;;;;64.77;50.23;;;;;23.00;99536.00;;;;2086158;28;20382;-54
2022/09/14 04:26:24;;;;;;;63.17;50.47;;;;;23.00;99529.00;;;;2087057;28;20211;-55
2022/09/14 04:27:24;;;;;;;61.40;51.08;;;;;23.00;99533.00;;;;2094036;28;20550;-54
2022/09/14 04:28:25;;;;;;;62.83;49.63;;;;;23.00;99529.00;;;;2094737;28;20227;-53
2022/09/14 04:29:25;;;;;;;59.60;48.63;;;;;23.00;99530.00;;;;2094067;28;20215;-55
2022/09/14 04:30:25;;;;;;;59.27;46.13;;;;;23.00;99532.00;;;;2088274;28;20212;-54
2022/09/14 04:31:26;;;;;;;57.30;45.93;;;;;23.00;99530.00;;;;2092823;28;20200;-54
2022/09/14 04:32:26;;;;;;;59.33;46.83;;;;;23.10;99536.00;;;;2089394;28;20264;-53
2022/09/14 04:33:30;;;;;;;58.67;45.53;;;;;23.00;99530.00;;;;2098545;28;20281;-54
2022/09/14 04:34:30;;;;;;;54.13;43.78;;;;;23.00;99527.00;;;;2093110;28;20212;-54
2022/09/14 04:35:31;;;;;;;49.23;43.63;;;;;23.00;99524.00;;;;2094660;28;20208;-55
2022/09/14 04:36:31;;;;;;;52.57;41.97;;;;;23.00;99527.00;;;;2094691;28;20613;-54
2022/09/14 04:37:32;;;;;;;53.43;42.10;;;;;23.00;99536.00;;;;2094080;28;20220;-54
2022/09/14 04:38:32;;;;;;;51.87;41.87;;;;;23.00;99407.00;;;;2094608;28;20207;-54
2022/09/14 04:39:33;;;;;;;55.10;42.43;;;;;23.00;99528.00;;;;2094617;28;20235;-54
2022/09/14 04:40:33;;;;;;;50.43;40.57;;;;;23.00;99529.00;;;;2094681;28;20204;-54
2022/09/14 04:41:33;;;;;;;49.23;40.03;;;;;23.00;99537.00;;;;2093939;28;20636;-53
2022/09/14 04:42:34;;;;;;;46.20;39.13;;;;;23.00;99532.00;;;;2092482;28;20630;-53
2022/09/14 04:43:34;;;;;;;45.50;36.77;;;;;23.00;99529.00;;;;2092601;28;20647;-53
2022/09/14 04:44:34;;;;;;;45.53;36.23;;;;;23.00;99528.00;;;;2085593;28;20232;-55
2022/09/14 04:45:35;;;;;;;46.97;37.13;;;;;23.00;99535.00;;;;2090501;28;20208;-55
2022/09/14 04:46:38;;;;;;;43.93;36.70;;;;;23.00;99535.00;;;;2095057;28;20253;-54
2022/09/14 04:47:38;;;;;;;46.70;37.25;;;;;23.00;99534.00;;;;2094655;28;20462;-54
2022/09/14 04:48:39;;;;;;;42.83;34.90;;;;;23.00;99524.00;;;;2088608;28;20700;-53
2022/09/14 04:49:39;;;;;;;44.43;34.40;;;;;23.00;99529.00;;;;2087104;28;20246;-54
2022/09/14 04:50:39;;;;;;;40.87;33.77;;;;;23.00;99529.00;;;;2087315;28;20212;-54
2022/09/14 04:51:40;;;;;;;38.17;33.27;;;;;23.00;99530.00;;;;2088568;28;20324;-54
2022/09/14 04:52:40;;;;;;;37.70;31.80;;;;;23.00;99534.00;;;;2088260;28;20739;-54
2022/09/14 04:53:41;;;;;;;39.47;30.77;;;;;23.00;99533.00;;;;2088020;28;20274;-54
2022/09/14 04:54:41;;;;;;;39.77;31.77;;;;;23.00;99534.00;;;;2088282;28;20741;-53
2022/09/14 04:55:41;;;;;;;41.50;31.27;;;;;23.00;99531.00;;;;2088052;28;20213;-54
2022/09/14 04:56:42;;;;;;;36.70;30.50;;;;;23.00;99529.00;;;;2088266;28;20224;-55
2022/09/14 04:57:42;;;;;;;37.33;29.63;;;;;23.00;99529.00;;;;2088012;28;20217;-55
2022/09/14 04:58:44;;;;;;;35.30;28.40;;;;;23.00;99527.00;;;;2095639;28;20223;-54
2022/09/14 04:59:45;;;;;;;35.78;29.27;;;;;23.00;99527.00;;;;2095816;28;20694;-55
2022/09/14 05:00:45;;;;;;;33.87;28.00;;;;;23.00;99527.00;;;;2095493;28;20204;-55
2022/09/14 05:01:49;;;;;;;38.40;28.40;;;;;23.00;99530.00;;;;2095855;28;20239;-54
2022/09/14 05:02:49;;;;;;;32.90;27.15;;;;;23.00;99527.00;;;;2096601;28;20208;-54
2022/09/14 05:03:49;;;;;;;31.53;26.70;;;;;23.00;99528.00;;;;2096416;28;20208;-53
2022/09/14 05:04:50;;;;;;;31.27;26.20;;;;;23.00;99531.00;;;;2096467;28;20231;-53
2022/09/14 05:05:50;;;;;;;31.27;26.40;;;;;23.00;99534.00;;;;2095502;28;21139;-55
2022/09/14 05:06:50;;;;;;;29.23;24.97;;;;;23.00;99532.00;;;;2095442;28;20801;-55
2022/09/14 05:07:51;;;;;;;29.70;24.20;;;;;23.00;99529.00;;;;2093547;28;20897;-55
2022/09/14 05:08:51;;;;;;;29.37;25.30;;;;;23.00;99533.00;;;;2086555;28;21127;-56
2022/09/14 05:09:52;;;;;;;28.00;22.63;;;;;23.00;99531.00;;;;2087620;28;20727;-55
2022/09/14 05:10:56;;;;;;;29.87;24.60;;;;;23.00;99525.00;;;;2088212;28;20215;-55
2022/09/14 05:11:56;;;;;;;28.40;22.35;;;;;23.00;99528.00;;;;2088373;28;20201;-55
2022/09/14 05:12:56;;;;;;;28.60;23.33;;;;;23.00;99527.00;;;;2088295;28;20215;-54
2022/09/14 05:13:57;;;;;;;29.43;22.50;;;;;23.00;99530.00;;;;2084543;28;20208;-55
2022/09/14 05:14:58;;;;;;;26.43;20.97;;;;;23.00;99526.00;;;;2087708;28;20205;-55
2022/09/14 05:16:08;;;;;;;26.73;21.80;;;;;23.00;99528.00;;;;2088235;28;20447;-54